createdAt,value
2022-12-02T00:00:27.454Z,102087.23
2022-12-02T00:03:22.260Z,102091.42
2022-12-02T00:05:55.363Z,102093.88
2022-12-02T00:08:31.377Z,102092.08
2022-12-02T00:11:06.656Z,102096.81
2022-12-02T00:13:43.764Z,102097.02
2022-12-02T00:16:21.405Z,102105.77
2022-12-02T00:18:51.601Z,102099.65
2022-12-02T00:21:21.504Z,102101.84
2022-12-02T00:23:50.115Z,102099.44
2022-12-02T00:26:18.608Z,102099.51
2022-12-02T00:28:47.075Z,102096.02
2022-12-02T00:31:16.102Z,102092.84
2022-12-02T00:33:44.712Z,102085.19
2022-12-02T00:36:15.252Z,102092.59
2022-12-02T00:38:44.918Z,102088.52
2022-12-02T00:41:13.598Z,102085.14
2022-12-02T00:44:00.448Z,102087.91
2022-12-02T00:46:37.987Z,102088.88
2022-12-02T00:49:14.957Z,102089.98
2022-12-02T00:51:45.030Z,102085.12
2022-12-02T00:54:14.482Z,102086.62
2022-12-02T00:56:50.444Z,102087.69
2022-12-02T00:59:18.995Z,102079.80
2022-12-02T01:01:48.785Z,102073.81
2022-12-02T01:04:17.610Z,102074.44
2022-12-02T01:06:48.144Z,102065.30
2022-12-02T01:09:22.929Z,102061.63
2022-12-02T01:11:51.567Z,102058.43
2022-12-02T01:14:20.988Z,102055.38
2022-12-02T01:17:14.909Z,102048.15
2022-12-02T01:19:43.401Z,102045.73
2022-12-02T01:22:12.035Z,102047.90
2022-12-02T01:24:40.573Z,102047.49
2022-12-02T01:27:09.600Z,102047.02
2022-12-02T01:29:38.967Z,102052.27
2022-12-02T01:32:07.723Z,102049.89
2022-12-02T01:34:36.244Z,102043.45
2022-12-02T01:37:04.764Z,102039.27
2022-12-02T01:39:33.405Z,102034.31
2022-12-02T01:42:02.065Z,102029.11
2022-12-02T01:44:39.126Z,102029.09
2022-12-02T01:47:07.926Z,102023.49
2022-12-02T01:49:36.516Z,102029.35
2022-12-02T01:52:12.871Z,102025.20
2022-12-02T01:54:41.436Z,102023.27
2022-12-02T01:57:18.514Z,102024.52
2022-12-02T01:59:48.167Z,102023.52
2022-12-02T02:02:37.276Z,102019.66
2022-12-02T02:05:30.359Z,102019.11
2022-12-02T02:08:11.265Z,102021.25
2022-12-02T02:10:44.091Z,102022.63
2022-12-02T02:13:15.780Z,102026.81
2022-12-02T02:15:46.621Z,102024.52
2022-12-02T02:18:16.957Z,102023.36
2022-12-02T02:20:59.326Z,102027.84
2022-12-02T02:23:31.227Z,102027.92
2022-12-02T02:26:00.250Z,102034.26
2022-12-02T02:28:51.844Z,102036.29
2022-12-02T02:31:20.451Z,102044.06
2022-12-02T02:33:49.805Z,102043.40
2022-12-02T02:36:19.828Z,102048.77
2022-12-02T02:38:49.501Z,102046.16
2022-12-02T02:41:18.531Z,102041.90
2022-12-02T02:43:48.025Z,102040.20
2022-12-02T02:46:19.377Z,102038.93
2022-12-02T02:48:48.875Z,102043.98
2022-12-02T02:51:18.005Z,102040.34
2022-12-02T02:53:47.829Z,102034.92
2022-12-02T02:56:19.085Z,102034.92
2022-12-02T02:58:47.695Z,102035.86
2022-12-02T03:01:30.291Z,102030.81
2022-12-02T03:04:04.526Z,102031.30
2022-12-02T03:09:48.268Z,102030.92
2022-12-02T03:12:18.108Z,102024.11
2022-12-02T03:14:46.741Z,102023.89
2022-12-02T03:17:16.363Z,102017.05
2022-12-02T03:19:46.816Z,102016.48
2022-12-02T03:22:15.499Z,102018.11
2022-12-02T03:24:44.302Z,102017.44
2022-12-02T03:27:14.267Z,102018.11
2022-12-02T03:29:56.022Z,102017.54
2022-12-02T03:32:24.846Z,102017.29
2022-12-02T03:34:54.155Z,102023.42
2022-12-02T03:37:23.813Z,102025.64
2022-12-02T03:39:53.257Z,102026.65
2022-12-02T03:42:21.936Z,102026.52
2022-12-02T03:44:51.508Z,102025.44
2022-12-02T03:47:20.068Z,102026.60
2022-12-02T03:49:49.405Z,102030.91
2022-12-02T03:52:17.966Z,102026.25
2022-12-02T03:54:50.496Z,102026.73
2022-12-02T03:57:22.256Z,102027.23
2022-12-02T03:59:50.998Z,102026.65
2022-12-02T04:02:19.565Z,102024.45
2022-12-02T04:04:48.238Z,102025.84
2022-12-02T04:07:16.795Z,102029.08
2022-12-02T04:09:45.304Z,102028.67
2022-12-02T04:12:24.644Z,102031.52
2022-12-02T04:14:58.343Z,102035.09
2022-12-02T04:17:26.961Z,102033.56
2022-12-02T04:19:55.904Z,102030.04
2022-12-02T04:22:24.475Z,102028.77
2022-12-02T04:24:53.323Z,102035.17
2022-12-02T04:27:22.047Z,102033.81
2022-12-02T04:29:52.307Z,102036.58
2022-12-02T04:32:21.671Z,102038.95
2022-12-02T04:34:50.553Z,102036.62
2022-12-02T04:37:19.291Z,102035.12
2022-12-02T04:39:47.766Z,102043.10
2022-12-02T04:42:16.494Z,102045.52
2022-12-02T04:44:45.008Z,102047.08
2022-12-02T04:47:13.686Z,102049.52
2022-12-02T04:49:42.296Z,102054.45
2022-12-02T04:52:13.133Z,102056.84
2022-12-02T04:54:42.120Z,102061.64
2022-12-02T04:57:32.707Z,102059.86
2022-12-02T05:00:08.320Z,102060.23
2022-12-02T05:02:36.962Z,102060.54
2022-12-02T05:05:06.326Z,102061.60
2022-12-02T05:07:35.025Z,102061.91
2022-12-02T05:10:07.613Z,102066.51
2022-12-02T05:12:38.026Z,102064.41
2022-12-02T05:15:08.753Z,102064.91
2022-12-02T05:17:43.831Z,102067.27
2022-12-02T05:20:36.051Z,102066.30
2022-12-02T05:23:09.897Z,102064.48
2022-12-02T05:25:38.425Z,102055.56
2022-12-02T05:29:19.832Z,102056.58
2022-12-02T05:32:07.885Z,102056.96
2022-12-02T05:34:56.949Z,102059.80
2022-12-02T05:37:35.704Z,102056.94
2022-12-02T05:40:05.420Z,102062.67
2022-12-02T05:42:35.532Z,102060.63
2022-12-02T05:45:49.571Z,102067.25
2022-12-02T05:48:20.268Z,102068.05
2022-12-02T05:51:09.612Z,102075.61
2022-12-02T05:53:42.038Z,102078.48
2022-12-02T05:56:29.150Z,102075.67
2022-12-02T05:59:08.393Z,102075.38
2022-12-02T06:01:40.286Z,102077.30
2022-12-02T06:04:19.464Z,102074.65
2022-12-02T06:06:48.700Z,102073.75
2022-12-02T06:09:31.318Z,102066.21
2022-12-02T06:12:05.334Z,102066.58
2022-12-02T06:14:36.917Z,102072.73
2022-12-02T06:17:16.552Z,102069.18
2022-12-02T06:19:53.778Z,102072.32
2022-12-02T06:22:31.965Z,102070.34
2022-12-02T06:25:02.366Z,102070.69
2022-12-02T06:27:33.505Z,102072.23
2022-12-02T06:30:10.013Z,102070.21
2022-12-02T06:32:43.021Z,102067.20
2022-12-02T06:35:31.020Z,102068.86
2022-12-02T06:38:04.043Z,102068.45
2022-12-02T06:40:36.625Z,102064.67
2022-12-02T06:43:23.106Z,102062.48
2022-12-02T06:45:51.850Z,102059.23
2022-12-02T06:48:34.713Z,102059.14
2022-12-02T06:51:20.453Z,102061.76
2022-12-02T06:53:51.645Z,102059.96
2022-12-02T06:56:24.933Z,102063.51
2022-12-02T06:58:53.618Z,102060.27
2022-12-02T07:01:28.556Z,102063.65
2022-12-02T07:04:09.329Z,102061.69
2022-12-02T07:06:43.789Z,102068.55
2022-12-02T07:09:46.788Z,102066.12
2022-12-02T07:12:29.926Z,102070.02
2022-12-02T07:15:25.563Z,102063.86
2022-12-02T07:17:58.108Z,102070.21
2022-12-02T07:20:32.462Z,102071.23
2022-12-02T07:23:12.034Z,102075.02
2022-12-02T07:25:53.355Z,102076.31
2022-12-02T07:28:28.065Z,102079.07
2022-12-02T07:31:24.692Z,102079.17
2022-12-02T07:33:54.246Z,102082.23
2022-12-02T07:36:22.954Z,102086.92
2022-12-02T07:39:05.974Z,102087.55
2022-12-02T07:41:37.280Z,102087.39
2022-12-02T07:44:06.737Z,102087.47
2022-12-02T07:46:35.523Z,102081.70
2022-12-02T07:49:04.077Z,102081.20
2022-12-02T07:51:33.518Z,102081.47
2022-12-02T07:54:02.047Z,102081.46
2022-12-02T07:56:30.541Z,102082.08
2022-12-02T07:59:11.892Z,102083.48
2022-12-02T08:01:41.477Z,102081.24
2022-12-02T08:04:10.154Z,102081.89
2022-12-02T08:06:40.106Z,102079.60
2022-12-02T08:09:09.851Z,102081.80
2022-12-02T08:11:38.944Z,102082.38
2022-12-02T08:14:07.574Z,102087.28
2022-12-02T08:16:36.093Z,102088.67
2022-12-02T08:19:04.676Z,102089.29
2022-12-02T08:21:34.660Z,102085.92
2022-12-02T08:24:04.418Z,102088.49
2022-12-02T08:26:33.395Z,102087.68
2022-12-02T08:29:02.028Z,102085.73
2022-12-02T08:31:30.535Z,102080.21
2022-12-02T08:34:03.753Z,102084.41
2022-12-02T08:36:35.987Z,102079.71
2022-12-02T08:39:06.147Z,102080.75
2022-12-02T08:41:36.373Z,102078.25
2022-12-02T08:44:06.384Z,102076.77
2022-12-02T08:46:37.046Z,102071.67
2022-12-02T08:49:06.516Z,102072.45
2022-12-02T08:51:36.961Z,102070.45
2022-12-02T08:54:09.314Z,102068.02
2022-12-02T08:56:37.786Z,102067.23
2022-12-02T08:59:06.320Z,102067.46
2022-12-02T09:01:35.157Z,102067.73
2022-12-02T09:04:04.041Z,102066.56
2022-12-02T09:06:36.073Z,102068.36
2022-12-02T09:09:06.201Z,102066.88
2022-12-02T09:11:35.142Z,102068.23
2022-12-02T09:14:03.865Z,102064.02
2022-12-02T09:16:32.500Z,102062.27
2022-12-02T09:19:01.181Z,102056.08
2022-12-02T09:21:29.923Z,102055.26
2022-12-02T09:23:58.571Z,102051.68
2022-12-02T09:26:27.113Z,102043.09
2022-12-02T09:28:55.630Z,102046.60
2022-12-02T09:31:24.224Z,102043.58
2022-12-02T09:33:52.834Z,102044.95
2022-12-02T09:36:21.483Z,102040.17
2022-12-02T09:38:50.239Z,102041.35
2022-12-02T09:41:19.341Z,102039.57
2022-12-02T09:43:54.626Z,102039.23
2022-12-02T09:46:24.920Z,102035.36
2022-12-02T09:48:54.120Z,102031.58
2022-12-02T09:51:22.872Z,102030.63
2022-12-02T09:53:52.489Z,102029.43
2022-12-02T09:56:23.394Z,102024.08
2022-12-02T09:58:56.204Z,102019.56
2022-12-02T10:01:28.069Z,102022.98
2022-12-02T10:03:56.665Z,102021.52
2022-12-02T10:06:29.324Z,102022.45
2022-12-02T10:09:01.123Z,102023.02
2022-12-02T10:11:32.920Z,102021.14
2022-12-02T10:14:04.049Z,102022.74
2022-12-02T10:16:35.244Z,102023.02
2022-12-02T10:19:05.621Z,102026.86
2022-12-02T10:21:34.803Z,102020.33
2022-12-02T10:24:10.107Z,102018.34
2022-12-02T10:26:54.015Z,102017.35
2022-12-02T10:29:31.782Z,102019.88
2022-12-02T10:32:06.861Z,102015.89
2022-12-02T10:34:36.856Z,102019.20
2022-12-02T10:37:26.061Z,102018.38
2022-12-02T10:40:17.851Z,102021.73
2022-12-02T10:42:46.587Z,102019.60
2022-12-02T10:45:24.549Z,102016.20
2022-12-02T10:48:16.668Z,102013.58
2022-12-02T10:50:45.454Z,102017.70
2022-12-02T10:53:17.806Z,102016.52
2022-12-02T10:55:47.689Z,102016.11
2022-12-02T10:58:26.981Z,102020.15
2022-12-02T11:00:58.399Z,102018.30
2022-12-02T11:03:27.194Z,102018.48
2022-12-02T11:06:05.852Z,102020.91
2022-12-02T11:08:34.547Z,102019.75
2022-12-02T11:11:17.614Z,102021.77
2022-12-02T11:13:58.061Z,102018.67
2022-12-02T11:16:29.641Z,102019.77
2022-12-02T11:19:06.173Z,102021.61
2022-12-02T11:21:41.749Z,102017.89
2022-12-02T11:24:29.129Z,102017.86
2022-12-02T11:27:00.923Z,102017.25
2022-12-02T11:29:31.807Z,102019.83
2022-12-02T11:32:23.255Z,102017.31
2022-12-02T11:37:48.893Z,102019.95
2022-12-02T11:40:18.046Z,102019.25
2022-12-02T11:42:46.852Z,102018.19
2022-12-02T11:45:18.373Z,102014.05
2022-12-02T11:48:01.031Z,102015.11
2022-12-02T11:50:32.627Z,102014.04
2022-12-02T11:53:16.629Z,102010.29
2022-12-02T11:55:51.144Z,102011.33
2022-12-02T11:58:37.606Z,102014.60
2022-12-02T12:01:15.420Z,102010.09
2022-12-02T12:03:57.630Z,102008.59
2022-12-02T12:06:39.745Z,102015.02
2022-12-02T12:09:12.158Z,102009.24
2022-12-02T12:11:42.419Z,102010.95
2022-12-02T12:14:15.071Z,102010.41
2022-12-02T12:16:49.783Z,102011.65
2022-12-02T12:19:21.184Z,102005.23
2022-12-02T12:21:57.511Z,102010.38
2022-12-02T12:24:28.670Z,102009.54
2022-12-02T12:26:58.561Z,102014.55
2022-12-02T12:29:40.083Z,102012.75
2022-12-02T12:32:10.445Z,102018.63
2022-12-02T12:34:39.296Z,102019.98
2022-12-02T12:37:07.927Z,102021.63
2022-12-02T12:39:36.409Z,102025.67
2022-12-02T12:42:05.053Z,102029.33
2022-12-02T12:44:33.548Z,102031.50
2022-12-02T12:47:04.586Z,102030.41
2022-12-02T12:49:35.092Z,102029.27
2022-12-02T12:52:04.089Z,102029.52
2022-12-02T12:54:32.742Z,102033.52
2022-12-02T12:57:01.248Z,102037.73
2022-12-02T12:59:29.842Z,102034.19
2022-12-02T13:01:58.632Z,102036.49
2022-12-02T13:04:27.303Z,102036.04
2022-12-02T13:06:55.808Z,102034.10
2022-12-02T13:09:24.345Z,102034.16
2022-12-02T13:11:52.897Z,102033.22
2022-12-02T13:14:21.771Z,102036.19
2022-12-02T13:16:51.812Z,102037.39
2022-12-02T13:19:21.013Z,102036.15
2022-12-02T13:21:49.757Z,102038.67
2022-12-02T13:24:19.196Z,102046.05
2022-12-02T13:26:47.668Z,102048.20
2022-12-02T13:29:16.251Z,102048.69
2022-12-02T13:31:44.930Z,102053.39
2022-12-02T13:34:13.766Z,102055.95
2022-12-02T13:36:42.212Z,102056.83
2022-12-02T13:39:11.979Z,102061.66
2022-12-02T13:41:40.610Z,102065.10
2022-12-02T13:44:09.164Z,102067.96
2022-12-02T13:46:37.796Z,102072.29
2022-12-02T13:49:09.723Z,102072.30
2022-12-02T13:51:38.563Z,102071.02
2022-12-02T13:54:07.213Z,102068.75
2022-12-02T13:56:35.886Z,102071.34
2022-12-02T13:59:04.991Z,102072.71
2022-12-02T14:01:33.827Z,102079.55
2022-12-02T14:04:02.483Z,102085.73
2022-12-02T14:06:31.135Z,102085.30
2022-12-02T14:08:59.662Z,102083.36
2022-12-02T14:11:28.359Z,102077.75
2022-12-02T14:13:57.074Z,102071.59
2022-12-02T14:16:25.725Z,102074.12
2022-12-02T14:18:57.536Z,102071.84
2022-12-02T14:21:26.742Z,102074.64
2022-12-02T14:23:55.625Z,102077.58
2022-12-02T14:26:24.350Z,102079.28
2022-12-02T14:28:53.207Z,102078.77
2022-12-02T14:31:26.491Z,102072.49
2022-12-02T14:34:13.164Z,102072.45
2022-12-02T14:36:43.589Z,102077.14
2022-12-02T14:39:12.482Z,102080.38
2022-12-02T14:41:41.273Z,102081.43
2022-12-02T14:44:09.832Z,102081.10
2022-12-02T14:46:39.328Z,102085.23
2022-12-02T14:49:38.910Z,102086.96
2022-12-02T14:51:57.001Z,102086.95
2022-12-02T14:54:25.643Z,102089.69
2022-12-02T14:56:54.313Z,102086.79
2022-12-02T14:59:23.502Z,102086.54
2022-12-02T15:01:52.151Z,102089.05
2022-12-02T15:04:20.923Z,102088.95
2022-12-02T15:06:49.679Z,102090.16
2022-12-02T15:09:18.365Z,102094.09
2022-12-02T15:11:46.960Z,102093.27
2022-12-02T15:14:15.558Z,102098.41
2022-12-02T15:16:44.215Z,102095.97
2022-12-02T15:19:12.986Z,102095.27
2022-12-02T15:21:43.462Z,102097.80
2022-12-02T15:24:11.981Z,102099.73
2022-12-02T15:26:41.281Z,102102.95
2022-12-02T15:29:09.923Z,102103.45
2022-12-02T15:31:38.547Z,102108.73
2022-12-02T15:34:07.448Z,102107.30
2022-12-02T15:36:36.776Z,102110.48
2022-12-02T15:39:05.530Z,102106.70
2022-12-02T15:41:34.061Z,102105.02
2022-12-02T15:44:02.637Z,102107.48
2022-12-02T15:46:31.360Z,102107.16
2022-12-02T15:49:00.202Z,102109.14
2022-12-02T15:51:28.848Z,102107.74
2022-12-02T15:53:57.499Z,102110.02
2022-12-02T15:56:26.044Z,102109.33
2022-12-02T15:58:55.256Z,102112.21
2022-12-02T16:01:24.108Z,102109.92
2022-12-02T16:03:52.971Z,102114.03
2022-12-02T16:06:21.807Z,102113.52
2022-12-02T16:08:55.205Z,102115.94
2022-12-02T16:11:24.553Z,102118.31
2022-12-02T16:13:53.112Z,102117.63
2022-12-02T16:16:21.709Z,102121.10
2022-12-02T16:18:50.669Z,102117.70
2022-12-02T16:21:19.515Z,102122.98
2022-12-02T16:23:58.218Z,102124.69
2022-12-02T16:26:29.015Z,102121.79
2022-12-02T16:28:57.678Z,102124.58
2022-12-02T16:31:26.445Z,102127.13
2022-12-02T16:33:55.860Z,102131.15
2022-12-02T16:36:24.641Z,102132.74
2022-12-02T16:38:53.212Z,102128.39
2022-12-02T16:41:21.988Z,102131.45
2022-12-02T16:43:50.684Z,102134.20
2022-12-02T16:46:19.550Z,102134.48
2022-12-02T16:48:50.428Z,102136.20
2022-12-02T16:51:18.969Z,102138.25
2022-12-02T16:53:47.689Z,102143.77
2022-12-02T16:56:16.258Z,102144.88
2022-12-02T16:58:44.932Z,102148.33
2022-12-02T17:01:13.733Z,102152.52
2022-12-02T17:03:42.493Z,102153.00
2022-12-02T17:06:11.494Z,102155.04
2022-12-02T17:12:15.364Z,102154.79
2022-12-02T17:14:43.919Z,102154.88
2022-12-02T17:17:37.754Z,102154.88
2022-12-02T17:20:01.189Z,102158.98
2022-12-02T17:22:29.906Z,102164.50
2022-12-02T17:24:58.743Z,102163.02
2022-12-02T17:27:27.411Z,102162.02
2022-12-02T17:29:56.007Z,102163.79
2022-12-02T17:32:24.716Z,102168.33
2022-12-02T17:34:53.636Z,102171.10
2022-12-02T17:37:22.556Z,102170.73
2022-12-02T17:39:51.241Z,102173.23
2022-12-02T17:42:19.835Z,102172.27
2022-12-02T17:44:48.395Z,102175.11
2022-12-02T17:47:17.187Z,102173.38
2022-12-02T17:49:45.662Z,102170.39
2022-12-02T17:52:21.738Z,102173.61
2022-12-02T17:54:50.984Z,102169.79
2022-12-02T17:57:20.120Z,102179.67
2022-12-02T17:59:48.676Z,102180.15
2022-12-02T18:02:17.379Z,102177.38
2022-12-02T18:04:47.140Z,102176.71
2022-12-02T18:07:15.925Z,102181.02
2022-12-02T18:09:45.135Z,102179.00
2022-12-02T18:12:15.755Z,102177.83
2022-12-02T18:14:44.415Z,102180.56
2022-12-02T18:17:13.084Z,102177.09
2022-12-02T18:19:41.993Z,102180.45
2022-12-02T18:22:10.554Z,102180.09
2022-12-02T18:24:39.027Z,102177.63
2022-12-02T18:27:07.751Z,102174.55
2022-12-02T18:29:36.408Z,102174.48
2022-12-02T18:32:05.033Z,102172.46
2022-12-02T18:34:33.673Z,102173.40
2022-12-02T18:37:02.218Z,102173.78
2022-12-02T18:39:30.806Z,102176.81
2022-12-02T18:41:59.293Z,102178.28
2022-12-02T18:44:28.855Z,102178.81
2022-12-02T18:46:57.421Z,102178.60
2022-12-02T18:49:25.985Z,102178.23
2022-12-02T18:51:55.147Z,102181.36
2022-12-02T18:54:23.826Z,102176.30
2022-12-02T18:56:52.550Z,102181.52
2022-12-02T19:04:32.975Z,102183.18
2022-12-02T19:07:01.800Z,102180.08
2022-12-02T19:09:30.428Z,102186.99
2022-12-02T19:11:59.068Z,102191.09
2022-12-02T19:14:27.541Z,102192.27
2022-12-02T19:16:56.021Z,102190.58
2022-12-02T19:19:24.835Z,102190.23
2022-12-02T19:21:53.461Z,102191.23
2022-12-02T19:24:22.025Z,102189.70
2022-12-02T19:26:50.563Z,102190.59
2022-12-02T19:29:19.050Z,102189.20
2022-12-02T19:31:47.582Z,102189.82
2022-12-02T19:34:16.157Z,102189.29
2022-12-02T19:36:46.676Z,102186.48
2022-12-02T19:39:16.255Z,102188.69
2022-12-02T19:41:45.385Z,102191.95
2022-12-02T19:44:14.132Z,102196.13
2022-12-02T19:46:42.749Z,102202.98
2022-12-02T19:49:11.574Z,102199.83
2022-12-02T19:51:40.168Z,102200.77
2022-12-02T19:54:08.950Z,102199.79
2022-12-02T19:56:37.526Z,102200.52
2022-12-02T19:59:06.169Z,102196.63
2022-12-02T20:01:39.075Z,102200.67
2022-12-02T20:04:33.437Z,102199.66
2022-12-02T20:06:56.925Z,102199.75
2022-12-02T20:09:26.689Z,102197.97
2022-12-02T20:11:55.256Z,102199.25
2022-12-02T20:14:23.873Z,102198.30
2022-12-02T20:16:52.394Z,102201.34
2022-12-02T20:19:20.989Z,102201.72
2022-12-02T20:21:49.593Z,102197.67
2022-12-02T20:24:18.218Z,102200.06
2022-12-02T20:26:46.791Z,102196.71
2022-12-02T20:29:15.281Z,102194.46
2022-12-02T20:31:43.961Z,102185.88
2022-12-02T20:34:12.517Z,102187.78
2022-12-02T20:36:41.036Z,102189.71
2022-12-02T20:39:10.494Z,102188.31
2022-12-02T20:41:39.275Z,102190.17
2022-12-02T20:44:07.920Z,102190.07
2022-12-02T20:46:36.512Z,102190.41
2022-12-02T20:49:05.109Z,102184.62
2022-12-02T20:51:35.504Z,102188.73
2022-12-02T20:54:04.120Z,102188.83
2022-12-02T20:56:32.663Z,102192.31
2022-12-02T20:59:01.167Z,102192.74
2022-12-02T21:01:29.714Z,102192.70
2022-12-02T21:03:58.354Z,102195.89
2022-12-02T21:06:26.875Z,102196.39
2022-12-02T21:08:56.688Z,102197.18
2022-12-02T21:11:25.456Z,102192.31
2022-12-02T21:13:53.953Z,102193.50
2022-12-02T21:16:22.537Z,102193.86
2022-12-02T21:18:51.186Z,102191.65
2022-12-02T21:21:19.669Z,102190.16
2022-12-02T21:23:48.089Z,102190.08
2022-12-02T21:26:16.667Z,102190.35
2022-12-02T21:28:45.382Z,102193.77
2022-12-02T21:31:16.224Z,102193.09
2022-12-02T21:33:45.511Z,102195.98
2022-12-02T21:36:14.207Z,102197.84
2022-12-02T21:38:42.668Z,102199.86
2022-12-02T21:41:11.348Z,102200.73
2022-12-02T21:43:40.003Z,102202.34
2022-12-02T21:46:08.560Z,102202.59
2022-12-02T21:48:41.041Z,102203.66
2022-12-02T22:04:23.836Z,102194.93
2022-12-02T22:07:12.513Z,102195.83
2022-12-02T22:09:41.269Z,102200.85
2022-12-02T22:12:10.332Z,102200.63
2022-12-02T22:14:44.536Z,102199.11
2022-12-02T22:17:13.445Z,102198.25
2022-12-02T22:19:42.639Z,102193.65
2022-12-02T22:22:11.728Z,102199.81
2022-12-02T22:24:40.318Z,102197.59
2022-12-02T22:27:08.891Z,102199.34
2022-12-02T22:29:37.490Z,102197.74
2022-12-02T22:32:06.484Z,102202.73
2022-12-02T22:34:35.080Z,102200.34
2022-12-02T22:37:04.359Z,102202.80
2022-12-02T22:39:32.927Z,102199.45
2022-12-02T22:42:01.571Z,102197.85
2022-12-02T22:44:30.183Z,102201.69
2022-12-02T22:46:58.814Z,102205.05
2022-12-02T22:49:27.325Z,102205.66
2022-12-02T22:51:56.044Z,102209.67
2022-12-02T22:54:24.686Z,102213.08
2022-12-02T22:56:53.328Z,102212.56
2022-12-02T22:59:21.959Z,102208.09
2022-12-02T23:01:50.704Z,102209.51
2022-12-02T23:04:19.385Z,102204.77
2022-12-02T23:06:48.475Z,102202.69
2022-12-02T23:09:16.976Z,102204.38
2022-12-02T23:11:45.591Z,102201.70
2022-12-02T23:14:14.201Z,102200.48
2022-12-02T23:16:42.956Z,102201.91
2022-12-02T23:19:11.725Z,102202.83
2022-12-02T23:21:40.350Z,102205.83
2022-12-02T23:24:09.535Z,102206.16
2022-12-02T23:26:38.165Z,102207.09
2022-12-02T23:29:06.768Z,102209.16
2022-12-02T23:31:35.462Z,102210.91
2022-12-02T23:34:04.098Z,102207.52
2022-12-02T23:36:35.213Z,102210.56
2022-12-02T23:39:04.429Z,102207.20
2022-12-02T23:41:33.008Z,102206.77
2022-12-02T23:44:01.631Z,102207.14
2022-12-02T23:46:30.257Z,102206.20
2022-12-02T23:48:58.798Z,102209.48
2022-12-02T23:51:27.552Z,102210.50
2022-12-02T23:53:56.237Z,102211.36
2022-12-02T23:56:24.943Z,102214.19
2022-12-02T23:58:53.710Z,102210.84
